sensor_id;sensor_type;location;lat;lon;timestamp;pressure;altitude;pressure_sealevel;temperature;humidity
38197;BME280;26543;51.976;4.616;2023-05-12T00:01:00;52869.75;;;-140.72;100.00
38197;BME280;26543;51.976;4.616;2023-05-12T00:03:26;52910.34;;;-140.72;100.00
38197;BME280;26543;51.976;4.616;2023-05-12T00:05:51;52894.13;;;-140.72;100.00
38197;BME280;26543;51.976;4.616;2023-05-12T00:08:16;52883.97;;;-140.72;100.00
38197;BME280;26543;51.976;4.616;2023-05-12T00:10:42;52906.28;;;-140.72;100.00
38197;BME280;26543;51.976;4.616;2023-05-12T00:13:07;52924.56;;;-140.72;100.00
38197;BME280;26543;51.976;4.616;2023-05-12T00:15:33;52920.50;;;-140.72;100.00
38197;BME280;26543;51.976;4.616;2023-05-12T00:17:58;52865.69;;;-140.72;100.00
38197;BME280;26543;51.976;4.616;2023-05-12T00:20:23;52908.31;;;-140.72;100.00
38197;BME280;26543;51.976;4.616;2023-05-12T00:22:48;52894.13;;;-140.72;100.00
38197;BME280;26543;51.976;4.616;2023-05-12T00:25:14;52918.47;;;-140.72;100.00
38197;BME280;26543;51.976;4.616;2023-05-12T00:27:39;52890.06;;;-140.72;100.00
38197;BME280;26543;51.976;4.616;2023-05-12T00:30:05;52890.06;;;-140.72;100.00
38197;BME280;26543;51.976;4.616;2023-05-12T00:32:30;52906.28;;;-140.72;100.00
38197;BME280;26543;51.976;4.616;2023-05-12T00:34:56;52894.13;;;-140.72;100.00
38197;BME280;26543;51.976;4.616;2023-05-12T00:37:21;52910.34;;;-140.72;100.00
38197;BME280;26543;51.976;4.616;2023-05-12T00:39:46;52930.66;;;-140.72;100.00
38197;BME280;26543;51.976;4.616;2023-05-12T00:42:11;52914.41;;;-140.72;100.00
38197;BME280;26543;51.976;4.616;2023-05-12T00:44:37;52879.91;;;-140.72;100.00
38197;BME280;26543;51.976;4.616;2023-05-12T00:47:02;52902.22;;;-140.72;100.00
38197;BME280;26543;51.976;4.616;2023-05-12T00:49:27;52898.16;;;-140.72;100.00
38197;BME280;26543;51.976;4.616;2023-05-12T00:51:53;52894.13;;;-140.72;100.00
38197;BME280;26543;51.976;4.616;2023-05-12T00:54:19;52902.22;;;-140.72;100.00
38197;BME280;26543;51.976;4.616;2023-05-12T00:56:44;52898.16;;;-140.72;100.00
38197;BME280;26543;51.976;4.616;2023-05-12T00:59:09;52920.50;;;-140.72;100.00
38197;BME280;26543;51.976;4.616;2023-05-12T01:01:35;52920.50;;;-140.72;100.00
38197;BME280;26543;51.976;4.616;2023-05-12T01:04:00;52922.53;;;-140.72;100.00
38197;BME280;26543;51.976;4.616;2023-05-12T01:09:06;52902.22;;;-140.72;100.00
38197;BME280;26543;51.976;4.616;2023-05-12T01:11:32;52934.69;;;-140.72;100.00
38197;BME280;26543;51.976;4.616;2023-05-12T01:13:57;52914.41;;;-140.72;100.00
38197;BME280;26543;51.976;4.616;2023-05-12T01:16:23;52938.75;;;-140.72;100.00
38197;BME280;26543;51.976;4.616;2023-05-12T01:18:50;52914.41;;;-140.72;100.00
38197;BME280;26543;51.976;4.616;2023-05-12T01:21:18;52938.75;;;-140.72;100.00
38197;BME280;26543;51.976;4.616;2023-05-12T01:23:47;52908.31;;;-140.72;100.00
38197;BME280;26543;51.976;4.616;2023-05-12T01:26:13;52950.94;;;-140.72;100.00
38197;BME280;26543;51.976;4.616;2023-05-12T01:28:38;52892.09;;;-140.72;100.00
38197;BME280;26543;51.976;4.616;2023-05-12T01:31:05;52916.44;;;-140.72;100.00
38197;BME280;26543;51.976;4.616;2023-05-12T01:33:31;52973.25;;;-140.72;100.00
38197;BME280;26543;51.976;4.616;2023-05-12T01:35:56;52965.16;;;-140.72;100.00
38197;BME280;26543;51.976;4.616;2023-05-12T01:38:22;52900.19;;;-140.72;100.00
38197;BME280;26543;51.976;4.616;2023-05-12T01:40:47;52946.88;;;-140.72;100.00
38197;BME280;26543;51.976;4.616;2023-05-12T01:43:12;52914.41;;;-140.72;100.00
38197;BME280;26543;51.976;4.616;2023-05-12T01:45:37;52940.78;;;-140.72;100.00
38197;BME280;26543;51.976;4.616;2023-05-12T01:48:03;52892.09;;;-140.72;100.00
38197;BME280;26543;51.976;4.616;2023-05-12T01:50:28;52926.59;;;-140.72;100.00
38197;BME280;26543;51.976;4.616;2023-05-12T01:52:53;52934.69;;;-140.72;100.00
38197;BME280;26543;51.976;4.616;2023-05-12T01:55:18;52926.59;;;-140.72;100.00
38197;BME280;26543;51.976;4.616;2023-05-12T01:57:44;52952.97;;;-140.72;100.00
38197;BME280;26543;51.976;4.616;2023-05-12T02:00:09;52965.16;;;-140.72;100.00
38197;BME280;26543;51.976;4.616;2023-05-12T02:02:35;52869.75;;;-140.72;100.00
38197;BME280;26543;51.976;4.616;2023-05-12T02:05:00;52946.88;;;-140.72;100.00
38197;BME280;26543;51.976;4.616;2023-05-12T02:07:25;52918.47;;;-140.72;100.00
38197;BME280;26543;51.976;4.616;2023-05-12T02:09:50;52930.66;;;-140.72;100.00
38197;BME280;26543;51.976;4.616;2023-05-12T02:12:16;52910.34;;;-140.72;100.00
38197;BME280;26543;51.976;4.616;2023-05-12T02:14:41;52934.69;;;-140.72;100.00
38197;BME280;26543;51.976;4.616;2023-05-12T02:17:07;52928.63;;;-140.72;100.00
38197;BME280;26543;51.976;4.616;2023-05-12T02:19:32;52920.50;;;-140.72;100.00
38197;BME280;26543;51.976;4.616;2023-05-12T02:24:45;52967.16;;;-140.72;100.00
38197;BME280;26543;51.976;4.616;2023-05-12T02:27:10;52926.59;;;-140.72;100.00
38197;BME280;26543;51.976;4.616;2023-05-12T02:29:36;52950.94;;;-140.72;100.00
38197;BME280;26543;51.976;4.616;2023-05-12T02:32:02;52944.84;;;-140.72;100.00
38197;BME280;26543;51.976;4.616;2023-05-12T02:34:40;52916.44;;;-140.72;100.00
38197;BME280;26543;51.976;4.616;2023-05-12T02:37:06;52999.66;;;-140.72;100.00
38197;BME280;26543;51.976;4.616;2023-05-12T02:42:00;52973.25;;;-140.72;100.00
38197;BME280;26543;51.976;4.616;2023-05-12T02:47:12;52922.53;;;-140.72;100.00
38197;BME280;26543;51.976;4.616;2023-05-12T02:52:21;52944.84;;;-140.72;100.00
38197;BME280;26543;51.976;4.616;2023-05-12T02:54:46;52938.75;;;-140.72;100.00
38197;BME280;26543;51.976;4.616;2023-05-12T02:57:11;52938.75;;;-140.72;100.00
38197;BME280;26543;51.976;4.616;2023-05-12T02:59:37;52944.84;;;-140.72;100.00
38197;BME280;26543;51.976;4.616;2023-05-12T03:02:02;52971.22;;;-140.72;100.00
38197;BME280;26543;51.976;4.616;2023-05-12T03:04:28;52928.63;;;-140.72;100.00
38197;BME280;26543;51.976;4.616;2023-05-12T03:06:54;52930.66;;;-140.72;100.00
38197;BME280;26543;51.976;4.616;2023-05-12T03:09:19;52967.16;;;-140.72;100.00
38197;BME280;26543;51.976;4.616;2023-05-12T03:11:44;52902.22;;;-140.72;100.00
38197;BME280;26543;51.976;4.616;2023-05-12T03:14:10;52942.81;;;-140.72;100.00
38197;BME280;26543;51.976;4.616;2023-05-12T03:16:35;52963.13;;;-140.72;100.00
38197;BME280;26543;51.976;4.616;2023-05-12T03:19:00;52952.97;;;-140.72;100.00
38197;BME280;26543;51.976;4.616;2023-05-12T03:21:26;52948.91;;;-140.72;100.00
38197;BME280;26543;51.976;4.616;2023-05-12T03:23:52;52977.31;;;-140.72;100.00
38197;BME280;26543;51.976;4.616;2023-05-12T03:26:17;52910.34;;;-140.72;100.00
38197;BME280;26543;51.976;4.616;2023-05-12T03:28:43;52981.38;;;-140.72;100.00
38197;BME280;26543;51.976;4.616;2023-05-12T03:31:08;52924.56;;;-140.72;100.00
38197;BME280;26543;51.976;4.616;2023-05-12T03:33:34;52946.88;;;-140.72;100.00
38197;BME280;26543;51.976;4.616;2023-05-12T03:35:59;52924.56;;;-140.72;100.00
38197;BME280;26543;51.976;4.616;2023-05-12T03:38:24;52957.03;;;-140.72;100.00
38197;BME280;26543;51.976;4.616;2023-05-12T03:40:49;52965.16;;;-140.72;100.00
38197;BME280;26543;51.976;4.616;2023-05-12T03:43:18;52942.81;;;-140.72;100.00
38197;BME280;26543;51.976;4.616;2023-05-12T03:45:43;52995.59;;;-140.72;100.00
38197;BME280;26543;51.976;4.616;2023-05-12T03:48:08;52938.75;;;-140.72;100.00
38197;BME280;26543;51.976;4.616;2023-05-12T03:50:34;52946.88;;;-140.72;100.00
38197;BME280;26543;51.976;4.616;2023-05-12T03:52:59;52934.69;;;-140.72;100.00
38197;BME280;26543;51.976;4.616;2023-05-12T03:55:24;52952.97;;;-140.72;100.00
38197;BME280;26543;51.976;4.616;2023-05-12T03:57:50;52938.75;;;-140.72;100.00
38197;BME280;26543;51.976;4.616;2023-05-12T04:00:15;52912.38;;;-140.72;100.00
38197;BME280;26543;51.976;4.616;2023-05-12T04:02:41;52967.16;;;-140.72;100.00
38197;BME280;26543;51.976;4.616;2023-05-12T04:05:06;52950.94;;;-140.72;100.00
38197;BME280;26543;51.976;4.616;2023-05-12T04:07:32;52932.66;;;-140.72;100.00
38197;BME280;26543;51.976;4.616;2023-05-12T04:09:58;52955.00;;;-140.72;100.00
38197;BME280;26543;51.976;4.616;2023-05-12T04:12:23;52942.81;;;-140.72;100.00
38197;BME280;26543;51.976;4.616;2023-05-12T04:14:49;52930.66;;;-140.72;100.00
38197;BME280;26543;51.976;4.616;2023-05-12T04:17:14;52977.31;;;-140.72;100.00
38197;BME280;26543;51.976;4.616;2023-05-12T04:19:39;52959.06;;;-140.72;100.00
38197;BME280;26543;51.976;4.616;2023-05-12T04:22:04;52930.66;;;-140.72;100.00
38197;BME280;26543;51.976;4.616;2023-05-12T04:24:30;52983.41;;;-140.72;100.00
38197;BME280;26543;51.976;4.616;2023-05-12T04:26:56;52955.00;;;-140.72;100.00
38197;BME280;26543;51.976;4.616;2023-05-12T04:29:21;52963.13;;;-140.72;100.00
38197;BME280;26543;51.976;4.616;2023-05-12T04:31:46;52930.66;;;-140.72;100.00
38197;BME280;26543;51.976;4.616;2023-05-12T04:34:12;52959.06;;;-140.72;100.00
38197;BME280;26543;51.976;4.616;2023-05-12T04:36:37;52942.81;;;-140.72;100.00
38197;BME280;26543;51.976;4.616;2023-05-12T04:39:02;52918.47;;;-140.72;100.00
38197;BME280;26543;51.976;4.616;2023-05-12T04:41:29;52963.13;;;-140.72;100.00
38197;BME280;26543;51.976;4.616;2023-05-12T04:43:54;52926.59;;;-140.72;100.00
38197;BME280;26543;51.976;4.616;2023-05-12T04:46:19;52950.94;;;-140.72;100.00
38197;BME280;26543;51.976;4.616;2023-05-12T04:48:45;52969.19;;;-140.72;100.00
38197;BME280;26543;51.976;4.616;2023-05-12T04:51:11;52959.06;;;-140.72;100.00
38197;BME280;26543;51.976;4.616;2023-05-12T04:53:36;52932.66;;;-140.72;100.00
38197;BME280;26543;51.976;4.616;2023-05-12T04:56:02;52946.88;;;-140.72;100.00
38197;BME280;26543;51.976;4.616;2023-05-12T04:58:27;52932.66;;;-140.72;100.00
38197;BME280;26543;51.976;4.616;2023-05-12T05:00:52;52959.06;;;-140.72;100.00
38197;BME280;26543;51.976;4.616;2023-05-12T05:03:17;52967.16;;;-140.72;100.00
38197;BME280;26543;51.976;4.616;2023-05-12T05:05:43;52922.53;;;-140.72;100.00
38197;BME280;26543;51.976;4.616;2023-05-12T05:08:08;52928.63;;;-140.72;100.00
38197;BME280;26543;51.976;4.616;2023-05-12T05:10:33;52934.69;;;-140.72;100.00
38197;BME280;26543;51.976;4.616;2023-05-12T05:12:58;52944.84;;;-140.72;100.00
38197;BME280;26543;51.976;4.616;2023-05-12T05:15:23;52904.25;;;-140.72;100.00
38197;BME280;26543;51.976;4.616;2023-05-12T05:17:49;52967.16;;;-140.72;100.00
38197;BME280;26543;51.976;4.616;2023-05-12T05:20:14;52928.63;;;-140.72;100.00
38197;BME280;26543;51.976;4.616;2023-05-12T05:22:40;52950.94;;;-140.72;100.00
38197;BME280;26543;51.976;4.616;2023-05-12T05:25:05;52930.66;;;-140.72;100.00
38197;BME280;26543;51.976;4.616;2023-05-12T05:27:31;52944.84;;;-140.72;100.00
38197;BME280;26543;51.976;4.616;2023-05-12T05:29:56;52922.53;;;-140.72;100.00
38197;BME280;26543;51.976;4.616;2023-05-12T05:32:21;52934.69;;;-140.72;100.00
38197;BME280;26543;51.976;4.616;2023-05-12T05:34:46;52967.16;;;-140.72;100.00
38197;BME280;26543;51.976;4.616;2023-05-12T05:37:12;52918.47;;;-140.72;100.00
38197;BME280;26543;51.976;4.616;2023-05-12T05:39:37;52952.97;;;-140.72;100.00
38197;BME280;26543;51.976;4.616;2023-05-12T05:42:02;52896.16;;;-140.72;100.00
38197;BME280;26543;51.976;4.616;2023-05-12T05:44:28;52930.66;;;-140.72;100.00
38197;BME280;26543;51.976;4.616;2023-05-12T05:46:53;52898.16;;;-140.72;100.00
38197;BME280;26543;51.976;4.616;2023-05-12T05:49:18;52955.00;;;-140.72;100.00
38197;BME280;26543;51.976;4.616;2023-05-12T05:51:43;52908.31;;;-140.72;100.00
38197;BME280;26543;51.976;4.616;2023-05-12T05:54:09;52938.75;;;-140.72;100.00
38197;BME280;26543;51.976;4.616;2023-05-12T05:56:34;52910.34;;;-140.72;100.00
38197;BME280;26543;51.976;4.616;2023-05-12T05:59:00;52888.03;;;-140.72;100.00
38197;BME280;26543;51.976;4.616;2023-05-12T06:01:27;52912.38;;;-140.72;100.00
38197;BME280;26543;51.976;4.616;2023-05-12T06:03:52;52873.81;;;-140.72;100.00
38197;BME280;26543;51.976;4.616;2023-05-12T06:06:17;52926.59;;;-140.72;100.00
38197;BME280;26543;51.976;4.616;2023-05-12T06:08:43;52869.75;;;-140.72;100.00
38197;BME280;26543;51.976;4.616;2023-05-12T06:11:08;52918.47;;;-140.72;100.00
38197;BME280;26543;51.976;4.616;2023-05-12T06:13:33;52845.41;;;-140.72;100.00
38197;BME280;26543;51.976;4.616;2023-05-12T06:15:58;52886.00;;;-140.72;100.00
38197;BME280;26543;51.976;4.616;2023-05-12T06:18:24;52857.59;;;-140.72;100.00
38197;BME280;26543;51.976;4.616;2023-05-12T06:20:49;52896.16;;;-140.72;100.00
38197;BME280;26543;51.976;4.616;2023-05-12T06:23:14;52881.94;;;-140.72;100.00
38197;BME280;26543;51.976;4.616;2023-05-12T06:25:39;52890.06;;;-140.72;100.00
38197;BME280;26543;51.976;4.616;2023-05-12T06:28:05;52904.25;;;-140.72;100.00
38197;BME280;26543;51.976;4.616;2023-05-12T06:30:30;52869.75;;;-140.72;100.00
38197;BME280;26543;51.976;4.616;2023-05-12T06:32:55;52867.72;;;-140.72;100.00
38197;BME280;26543;51.976;4.616;2023-05-12T06:35:20;52845.41;;;-140.72;100.00
38197;BME280;26543;51.976;4.616;2023-05-12T06:37:46;52837.28;;;-140.72;100.00
38197;BME280;26543;51.976;4.616;2023-05-12T06:40:14;52873.81;;;-140.72;100.00
38197;BME280;26543;51.976;4.616;2023-05-12T06:42:41;52823.09;;;-140.72;100.00
38197;BME280;26543;51.976;4.616;2023-05-12T06:45:06;52849.47;;;-140.72;100.00
38197;BME280;26543;51.976;4.616;2023-05-12T06:47:31;52853.53;;;-140.72;100.00
38197;BME280;26543;51.976;4.616;2023-05-12T06:49:57;52843.38;;;-140.72;100.00
38197;BME280;26543;51.976;4.616;2023-05-12T06:52:22;52861.66;;;-140.72;100.00
38197;BME280;26543;51.976;4.616;2023-05-12T06:54:48;52861.66;;;-140.72;100.00
38197;BME280;26543;51.976;4.616;2023-05-12T06:57:13;52861.66;;;-140.72;100.00
38197;BME280;26543;51.976;4.616;2023-05-12T06:59:38;52865.69;;;-140.72;100.00
38197;BME280;26543;51.976;4.616;2023-05-12T07:02:04;52859.63;;;-140.72;100.00
38197;BME280;26543;51.976;4.616;2023-05-12T07:04:29;52859.63;;;-140.72;100.00
38197;BME280;26543;51.976;4.616;2023-05-12T07:06:54;52877.88;;;-140.72;100.00
38197;BME280;26543;51.976;4.616;2023-05-12T07:09:20;52833.22;;;-140.72;100.00
38197;BME280;26543;51.976;4.616;2023-05-12T07:11:46;52869.75;;;-140.72;100.00
38197;BME280;26543;51.976;4.616;2023-05-12T07:14:11;52853.53;;;-140.72;100.00
38197;BME280;26543;51.976;4.616;2023-05-12T07:16:36;52827.16;;;-140.72;100.00
38197;BME280;26543;51.976;4.616;2023-05-12T07:19:02;52829.19;;;-140.72;100.00
38197;BME280;26543;51.976;4.616;2023-05-12T07:21:27;52853.53;;;-140.72;100.00
38197;BME280;26543;51.976;4.616;2023-05-12T07:23:53;52855.56;;;-140.72;100.00
38197;BME280;26543;51.976;4.616;2023-05-12T07:26:18;52845.41;;;-140.72;100.00
38197;BME280;26543;51.976;4.616;2023-05-12T07:28:44;52790.63;;;-140.72;100.00
38197;BME280;26543;51.976;4.616;2023-05-12T07:31:10;52808.88;;;-140.72;100.00
38197;BME280;26543;51.976;4.616;2023-05-12T07:33:35;52867.72;;;-140.72;100.00
38197;BME280;26543;51.976;4.616;2023-05-12T07:36:00;52810.91;;;-140.72;100.00
38197;BME280;26543;51.976;4.616;2023-05-12T07:38:26;52819.03;;;-140.72;100.00
38197;BME280;26543;51.976;4.616;2023-05-12T07:40:52;52770.31;;;-140.72;100.00
38197;BME280;26543;51.976;4.616;2023-05-12T07:43:17;52768.28;;;-140.72;100.00
38197;BME280;26543;51.976;4.616;2023-05-12T07:45:43;52784.53;;;-140.72;100.00
38197;BME280;26543;51.976;4.616;2023-05-12T07:48:08;52819.03;;;-140.72;100.00
38197;BME280;26543;51.976;4.616;2023-05-12T07:50:35;52810.91;;;-140.72;100.00
38197;BME280;26543;51.976;4.616;2023-05-12T07:53:00;52766.25;;;-140.72;100.00
38197;BME280;26543;51.976;4.616;2023-05-12T07:55:25;52778.44;;;-140.72;100.00
38197;BME280;26543;51.976;4.616;2023-05-12T07:57:51;52810.91;;;-140.72;100.00
38197;BME280;26543;51.976;4.616;2023-05-12T08:00:16;52758.16;;;-140.72;100.00
38197;BME280;26543;51.976;4.616;2023-05-12T08:02:42;52774.38;;;-140.72;100.00
38197;BME280;26543;51.976;4.616;2023-05-12T08:05:08;52731.75;;;-140.72;100.00
38197;BME280;26543;51.976;4.616;2023-05-12T08:07:36;52762.22;;;-140.72;100.00
38197;BME280;26543;51.976;4.616;2023-05-12T08:10:02;52754.09;;;-140.72;100.00
38197;BME280;26543;51.976;4.616;2023-05-12T08:12:28;52748.00;;;-140.72;100.00
38197;BME280;26543;51.976;4.616;2023-05-12T08:14:53;52764.25;;;-140.72;100.00
38197;BME280;26543;51.976;4.616;2023-05-12T08:17:19;52772.34;;;-140.72;100.00
38197;BME280;26543;51.976;4.616;2023-05-12T08:19:45;52756.13;;;-140.72;100.00
38197;BME280;26543;51.976;4.616;2023-05-12T08:22:10;52733.78;;;-140.72;100.00
38197;BME280;26543;51.976;4.616;2023-05-12T08:24:35;52743.94;;;-140.72;100.00
38197;BME280;26543;51.976;4.616;2023-05-12T08:27:00;52729.75;;;-140.72;100.00
38197;BME280;26543;51.976;4.616;2023-05-12T08:29:25;52711.47;;;-140.72;100.00
38197;BME280;26543;51.976;4.616;2023-05-12T08:31:51;52772.34;;;-140.72;100.00
38197;BME280;26543;51.976;4.616;2023-05-12T08:34:16;52737.84;;;-140.72;100.00
38197;BME280;26543;51.976;4.616;2023-05-12T08:36:41;52748.00;;;-140.72;100.00
38197;BME280;26543;51.976;4.616;2023-05-12T08:39:06;52709.44;;;-140.72;100.00
38197;BME280;26543;51.976;4.616;2023-05-12T08:43:59;52699.31;;;-140.72;100.00
38197;BME280;26543;51.976;4.616;2023-05-12T08:46:25;52729.75;;;-140.72;100.00
38197;BME280;26543;51.976;4.616;2023-05-12T08:48:50;52711.47;;;-140.72;100.00
38197;BME280;26543;51.976;4.616;2023-05-12T08:51:16;52719.59;;;-140.72;100.00
38197;BME280;26543;51.976;4.616;2023-05-12T08:53:42;52672.91;;;-140.72;100.00
38197;BME280;26543;51.976;4.616;2023-05-12T08:56:08;52658.72;;;-140.72;100.00
38197;BME280;26543;51.976;4.616;2023-05-12T08:58:34;52630.31;;;-140.72;100.00
38197;BME280;26543;51.976;4.616;2023-05-12T09:01:00;52638.41;;;-140.72;100.00
38197;BME280;26543;51.976;4.616;2023-05-12T09:03:28;52614.06;;;-140.72;100.00
38197;BME280;26543;51.976;4.616;2023-05-12T09:05:54;52595.81;;;-140.72;100.00
38197;BME280;26543;51.976;4.616;2023-05-12T09:08:21;52612.03;;;-140.72;100.00
38197;BME280;26543;51.976;4.616;2023-05-12T09:10:47;52662.78;;;-140.72;100.00
38197;BME280;26543;51.976;4.616;2023-05-12T09:13:18;52648.56;;;-140.72;100.00
38197;BME280;26543;51.976;4.616;2023-05-12T09:15:44;52614.06;;;-140.72;100.00
38197;BME280;26543;51.976;4.616;2023-05-12T09:18:11;52628.28;;;-140.72;100.00
38197;BME280;26543;51.976;4.616;2023-05-12T09:20:36;52585.66;;;-140.72;100.00
38197;BME280;26543;51.976;4.616;2023-05-12T09:23:14;52583.63;;;-140.72;100.00
38197;BME280;26543;51.976;4.616;2023-05-12T09:25:40;52581.59;;;-140.72;100.00
38197;BME280;26543;51.976;4.616;2023-05-12T09:28:05;52559.28;;;-140.72;100.00
38197;BME280;26543;51.976;4.616;2023-05-12T09:30:31;52587.69;;;-140.72;100.00
38197;BME280;26543;51.976;4.616;2023-05-12T09:33:09;52528.84;;;-140.72;100.00
38197;BME280;26543;51.976;4.616;2023-05-12T09:35:41;52543.03;;;-140.72;100.00
38197;BME280;26543;51.976;4.616;2023-05-12T09:38:11;52536.97;;;-140.72;100.00
38197;BME280;26543;51.976;4.616;2023-05-12T09:40:36;52549.13;;;-140.72;100.00
38197;BME280;26543;51.976;4.616;2023-05-12T09:43:04;52557.25;;;-140.72;100.00
38197;BME280;26543;51.976;4.616;2023-05-12T09:45:32;52514.63;;;-140.72;100.00
38197;BME280;26543;51.976;4.616;2023-05-12T09:47:57;52472.03;;;-140.72;100.00
38197;BME280;26543;51.976;4.616;2023-05-12T09:50:26;52484.19;;;-140.72;100.00
38197;BME280;26543;51.976;4.616;2023-05-12T09:52:53;52478.13;;;-140.72;100.00
38197;BME280;26543;51.976;4.616;2023-05-12T09:55:19;52496.38;;;-140.72;100.00
38197;BME280;26543;51.976;4.616;2023-05-12T09:57:44;52502.47;;;-140.72;100.00
38197;BME280;26543;51.976;4.616;2023-05-12T10:00:11;52476.09;;;-140.72;100.00
38197;BME280;26543;51.976;4.616;2023-05-12T10:02:43;52445.66;;;-140.72;95.13
38197;BME280;26543;51.976;4.616;2023-05-12T10:05:16;52476.09;;;-140.72;87.53
38197;BME280;26543;51.976;4.616;2023-05-12T10:07:43;52480.16;;;-140.72;51.81
38197;BME280;26543;51.976;4.616;2023-05-12T10:10:10;52405.06;;;-140.72;26.66
38197;BME280;26543;51.976;4.616;2023-05-12T10:12:37;52457.81;;;-140.72;0.03
38197;BME280;26543;51.976;4.616;2023-05-12T10:15:03;52352.31;;;-140.72;0.00
38197;BME280;26543;51.976;4.616;2023-05-12T10:17:33;52429.41;;;-140.72;0.00
38197;BME280;26543;51.976;4.616;2023-05-12T10:19:59;52374.63;;;-140.72;0.00
38197;BME280;26543;51.976;4.616;2023-05-12T10:22:25;52378.69;;;-140.72;0.00
38197;BME280;26543;51.976;4.616;2023-05-12T10:24:50;52362.44;;;-140.72;0.00
38197;BME280;26543;51.976;4.616;2023-05-12T10:27:18;52350.28;;;-140.72;0.00
38197;BME280;26543;51.976;4.616;2023-05-12T10:29:44;52315.78;;;-140.72;0.00
38197;BME280;26543;51.976;4.616;2023-05-12T10:32:10;52301.59;;;-140.72;0.00
38197;BME280;26543;51.976;4.616;2023-05-12T10:34:36;52313.75;;;-140.72;0.00
38197;BME280;26543;51.976;4.616;2023-05-12T10:37:05;52232.59;;;-140.72;0.00
38197;BME280;26543;51.976;4.616;2023-05-12T10:39:32;52340.13;;;-140.72;0.00
38197;BME280;26543;51.976;4.616;2023-05-12T10:42:07;52327.97;;;-140.72;0.00
38197;BME280;26543;51.976;4.616;2023-05-12T10:44:33;52388.84;;;-140.72;0.00
38197;BME280;26543;51.976;4.616;2023-05-12T10:47:00;52431.44;;;-140.72;0.00
38197;BME280;26543;51.976;4.616;2023-05-12T10:49:38;52459.84;;;-140.72;0.00
38197;BME280;26543;51.976;4.616;2023-05-12T10:52:04;52459.84;;;-140.72;0.00
38197;BME280;26543;51.976;4.616;2023-05-12T10:54:30;52431.44;;;-140.72;0.00
38197;BME280;26543;51.976;4.616;2023-05-12T10:57:00;52364.47;;;-140.72;0.00
38197;BME280;26543;51.976;4.616;2023-05-12T10:59:26;52411.16;;;-140.72;0.00
38197;BME280;26543;51.976;4.616;2023-05-12T11:01:58;52354.34;;;-140.72;0.00
38197;BME280;26543;51.976;4.616;2023-05-12T11:04:46;52258.97;;;-140.72;0.00
38197;BME280;26543;51.976;4.616;2023-05-12T11:07:10;52208.25;;;-140.72;0.00
38197;BME280;26543;51.976;4.616;2023-05-12T11:09:43;52198.09;;;-140.72;0.00
38197;BME280;26543;51.976;4.616;2023-05-12T11:12:09;52299.56;;;-140.72;0.00
38197;BME280;26543;51.976;4.616;2023-05-12T11:14:35;52242.75;;;-140.72;0.00
38197;BME280;26543;51.976;4.616;2023-05-12T11:17:01;52346.22;;;-140.72;0.00
38197;BME280;26543;51.976;4.616;2023-05-12T11:19:26;52252.88;;;-140.72;0.00
38197;BME280;26543;51.976;4.616;2023-05-12T11:21:52;52139.25;;;-140.72;0.00
38197;BME280;26543;51.976;4.616;2023-05-12T11:24:17;52194.03;;;-140.72;0.00
38197;BME280;26543;51.976;4.616;2023-05-12T11:26:44;52167.66;;;-140.72;0.00
38197;BME280;26543;51.976;4.616;2023-05-12T11:29:09;52265.06;;;-140.72;0.00
38197;BME280;26543;51.976;4.616;2023-05-12T11:31:35;52311.72;;;-140.72;0.00
38197;BME280;26543;51.976;4.616;2023-05-12T11:34:00;52374.63;;;-140.72;0.00
38197;BME280;26543;51.976;4.616;2023-05-12T11:36:27;52330.00;;;-140.72;0.00
38197;BME280;26543;51.976;4.616;2023-05-12T11:38:52;52287.38;;;-140.72;0.00
38197;BME280;26543;51.976;4.616;2023-05-12T11:41:23;52313.75;;;-140.72;0.00
38197;BME280;26543;51.976;4.616;2023-05-12T11:43:50;52297.53;;;-140.72;0.00
38197;BME280;26543;51.976;4.616;2023-05-12T11:46:27;52338.09;;;-140.72;0.00
38197;BME280;26543;51.976;4.616;2023-05-12T11:48:56;52307.66;;;-140.72;0.00
38197;BME280;26543;51.976;4.616;2023-05-12T11:51:22;52265.06;;;-140.72;0.00
38197;BME280;26543;51.976;4.616;2023-05-12T11:53:47;52151.44;;;-140.72;0.00
38197;BME280;26543;51.976;4.616;2023-05-12T11:56:17;52141.28;;;-140.72;0.00
38197;BME280;26543;51.976;4.616;2023-05-12T11:58:50;52192.00;;;-140.72;0.00
38197;BME280;26543;51.976;4.616;2023-05-12T12:01:15;52194.03;;;-140.72;0.00
38197;BME280;26543;51.976;4.616;2023-05-12T12:03:44;52062.16;;;-140.72;0.00
38197;BME280;26543;51.976;4.616;2023-05-12T12:06:11;52074.34;;;-140.72;0.00
38197;BME280;26543;51.976;4.616;2023-05-12T12:08:36;52066.22;;;-140.72;0.00
38197;BME280;26543;51.976;4.616;2023-05-12T12:11:04;52031.72;;;-140.72;0.00
38197;BME280;26543;51.976;4.616;2023-05-12T12:13:31;52033.75;;;-140.72;0.00
38197;BME280;26543;51.976;4.616;2023-05-12T12:15:56;52021.56;;;-140.72;0.00
38197;BME280;26543;51.976;4.616;2023-05-12T12:18:21;52088.53;;;-140.72;0.00
38197;BME280;26543;51.976;4.616;2023-05-12T12:20:47;51987.09;;;-140.72;0.00
38197;BME280;26543;51.976;4.616;2023-05-12T12:23:12;52029.69;;;-140.72;0.00
38197;BME280;26543;51.976;4.616;2023-05-12T12:25:37;52094.63;;;-140.72;0.00
38197;BME280;26543;51.976;4.616;2023-05-12T12:28:03;52098.69;;;-140.72;0.00
38197;BME280;26543;51.976;4.616;2023-05-12T12:30:28;52106.78;;;-140.72;0.00
38197;BME280;26543;51.976;4.616;2023-05-12T12:35:56;52011.44;;;-140.72;0.00
38197;BME280;26543;51.976;4.616;2023-05-12T12:38:22;51997.22;;;-140.72;0.00
38197;BME280;26543;51.976;4.616;2023-05-12T12:40:47;51985.06;;;-140.72;0.00
38197;BME280;26543;51.976;4.616;2023-05-12T12:43:12;51936.38;;;-140.72;0.00
38197;BME280;26543;51.976;4.616;2023-05-12T12:45:38;51938.41;;;-140.72;0.00
38197;BME280;26543;51.976;4.616;2023-05-12T12:48:03;51903.91;;;-140.72;0.00